sensor_id;sensor_type;location;lat;lon;timestamp;noise_LAeq;noise_LA_min;noise_LA_max;noise_LA01;noise_LA95
71034;Laerm;58847;52.378;4.740;2022-10-16T00:00:01;41.06;38.40;44.70;;
71034;Laerm;58847;52.378;4.740;2022-10-16T00:00:11;40.79;37.94;46.62;;
71034;Laerm;58847;52.378;4.740;2022-10-16T00:00:21;41.03;38.66;45.20;;
71034;Laerm;58847;52.378;4.740;2022-10-16T00:00:32;40.88;38.61;43.80;;
71034;Laerm;58847;52.378;4.740;2022-10-16T00:00:42;40.31;38.00;44.03;;
71034;Laerm;58847;52.378;4.740;2022-10-16T00:00:53;40.08;37.92;43.56;;
71034;Laerm;58847;52.378;4.740;2022-10-16T00:01:10;39.87;37.98;43.26;;
71034;Laerm;58847;52.378;4.740;2022-10-16T00:01:22;40.22;35.83;47.70;;
71034;Laerm;58847;52.378;4.740;2022-10-16T00:01:32;41.01;38.31;46.23;;
71034;Laerm;58847;52.378;4.740;2022-10-16T00:01:43;41.08;38.45;45.37;;
71034;Laerm;58847;52.378;4.740;2022-10-16T00:01:53;40.49;37.78;45.24;;
71034;Laerm;58847;52.378;4.740;2022-10-16T00:02:03;40.38;38.04;43.65;;
71034;Laerm;58847;52.378;4.740;2022-10-16T00:02:13;41.59;38.87;44.54;;
71034;Laerm;58847;52.378;4.740;2022-10-16T00:02:24;42.42;38.76;47.22;;
71034;Laerm;58847;52.378;4.740;2022-10-16T00:02:34;43.19;38.64;46.69;;
71034;Laerm;58847;52.378;4.740;2022-10-16T00:02:44;43.40;40.06;48.90;;
71034;Laerm;58847;52.378;4.740;2022-10-16T00:02:54;44.21;39.96;48.45;;
71034;Laerm;58847;52.378;4.740;2022-10-16T00:03:05;41.50;38.54;44.26;;
71034;Laerm;58847;52.378;4.740;2022-10-16T00:03:16;40.83;38.35;43.97;;
71034;Laerm;58847;52.378;4.740;2022-10-16T00:03:26;40.91;38.20;44.22;;
71034;Laerm;58847;52.378;4.740;2022-10-16T00:03:36;40.20;38.06;43.78;;
71034;Laerm;58847;52.378;4.740;2022-10-16T00:03:47;39.64;37.43;43.93;;
71034;Laerm;58847;52.378;4.740;2022-10-16T00:03:58;41.43;38.60;50.71;;
71034;Laerm;58847;52.378;4.740;2022-10-16T00:04:08;43.42;39.48;48.62;;
71034;Laerm;58847;52.378;4.740;2022-10-16T00:04:18;43.49;40.27;47.16;;
71034;Laerm;58847;52.378;4.740;2022-10-16T00:04:29;42.69;39.19;54.73;;
71034;Laerm;58847;52.378;4.740;2022-10-16T00:04:39;43.69;41.12;47.56;;
71034;Laerm;58847;52.378;4.740;2022-10-16T00:04:49;42.85;40.42;46.74;;
71034;Laerm;58847;52.378;4.740;2022-10-16T00:04:59;42.08;39.70;48.66;;
71034;Laerm;58847;52.378;4.740;2022-10-16T00:05:09;41.89;39.38;45.25;;
71034;Laerm;58847;52.378;4.740;2022-10-16T00:05:20;41.75;39.83;50.17;;
71034;Laerm;58847;52.378;4.740;2022-10-16T00:05:30;42.47;40.10;44.97;;
71034;Laerm;58847;52.378;4.740;2022-10-16T00:05:41;45.43;40.17;53.61;;
71034;Laerm;58847;52.378;4.740;2022-10-16T00:05:52;45.71;41.30;53.00;;
71034;Laerm;58847;52.378;4.740;2022-10-16T00:06:02;46.41;41.19;55.99;;
71034;Laerm;58847;52.378;4.740;2022-10-16T00:06:13;43.73;40.58;46.68;;
71034;Laerm;58847;52.378;4.740;2022-10-16T00:06:25;43.02;40.43;48.37;;
71034;Laerm;58847;52.378;4.740;2022-10-16T00:06:35;44.71;40.30;49.35;;
71034;Laerm;58847;52.378;4.740;2022-10-16T00:06:45;42.93;40.47;47.05;;
71034;Laerm;58847;52.378;4.740;2022-10-16T00:06:56;42.33;40.48;44.35;;
71034;Laerm;58847;52.378;4.740;2022-10-16T00:07:06;43.56;40.22;47.89;;
71034;Laerm;58847;52.378;4.740;2022-10-16T00:07:16;40.86;38.71;43.84;;
71034;Laerm;58847;52.378;4.740;2022-10-16T00:07:26;40.67;38.06;42.94;;
71034;Laerm;58847;52.378;4.740;2022-10-16T00:07:37;40.43;38.10;43.03;;
71034;Laerm;58847;52.378;4.740;2022-10-16T00:07:47;41.74;39.58;45.98;;
71034;Laerm;58847;52.378;4.740;2022-10-16T00:07:57;42.32;40.33;45.33;;
71034;Laerm;58847;52.378;4.740;2022-10-16T00:08:08;41.79;39.01;46.03;;
71034;Laerm;58847;52.378;4.740;2022-10-16T00:08:18;42.89;41.04;45.01;;
71034;Laerm;58847;52.378;4.740;2022-10-16T00:08:28;44.96;42.11;49.57;;
71034;Laerm;58847;52.378;4.740;2022-10-16T00:08:39;47.18;42.53;53.03;;
71034;Laerm;58847;52.378;4.740;2022-10-16T00:08:49;48.33;43.19;56.20;;
71034;Laerm;58847;52.378;4.740;2022-10-16T00:09:00;44.10;40.23;47.86;;
71034;Laerm;58847;52.378;4.740;2022-10-16T00:09:10;42.61;39.65;44.81;;
71034;Laerm;58847;52.378;4.740;2022-10-16T00:09:20;44.90;39.51;49.92;;
71034;Laerm;58847;52.378;4.740;2022-10-16T00:09:31;43.38;40.12;46.43;;
71034;Laerm;58847;52.378;4.740;2022-10-16T00:09:41;42.10;39.04;44.99;;
71034;Laerm;58847;52.378;4.740;2022-10-16T00:09:51;41.97;40.27;45.54;;
71034;Laerm;58847;52.378;4.740;2022-10-16T00:10:01;41.78;39.68;43.75;;
71034;Laerm;58847;52.378;4.740;2022-10-16T00:10:12;42.47;40.70;45.33;;
71034;Laerm;58847;52.378;4.740;2022-10-16T00:10:22;42.64;40.29;45.64;;
71034;Laerm;58847;52.378;4.740;2022-10-16T00:10:33;43.44;41.72;45.70;;
71034;Laerm;58847;52.378;4.740;2022-10-16T00:10:43;42.90;39.97;48.34;;
71034;Laerm;58847;52.378;4.740;2022-10-16T00:10:58;41.78;39.50;45.82;;
71034;Laerm;58847;52.378;4.740;2022-10-16T00:11:13;42.82;39.91;47.73;;
71034;Laerm;58847;52.378;4.740;2022-10-16T00:11:34;43.60;39.71;48.18;;
71034;Laerm;58847;52.378;4.740;2022-10-16T00:11:46;42.82;39.32;46.55;;
71034;Laerm;58847;52.378;4.740;2022-10-16T00:11:56;40.77;38.75;43.41;;
71034;Laerm;58847;52.378;4.740;2022-10-16T00:12:07;41.40;39.28;44.16;;
71034;Laerm;58847;52.378;4.740;2022-10-16T00:12:17;40.71;38.06;43.34;;
71034;Laerm;58847;52.378;4.740;2022-10-16T00:12:27;40.61;38.47;43.33;;
71034;Laerm;58847;52.378;4.740;2022-10-16T00:12:37;40.60;37.28;44.24;;
71034;Laerm;58847;52.378;4.740;2022-10-16T00:12:48;40.57;38.58;43.13;;
71034;Laerm;58847;52.378;4.740;2022-10-16T00:12:58;41.83;38.97;45.64;;
71034;Laerm;58847;52.378;4.740;2022-10-16T00:13:09;44.63;40.82;47.75;;
71034;Laerm;58847;52.378;4.740;2022-10-16T00:13:19;41.82;39.45;44.65;;
71034;Laerm;58847;52.378;4.740;2022-10-16T00:13:31;41.34;39.30;45.43;;
71034;Laerm;58847;52.378;4.740;2022-10-16T00:13:42;41.71;39.55;45.12;;
71034;Laerm;58847;52.378;4.740;2022-10-16T00:13:54;40.87;38.66;43.59;;
71034;Laerm;58847;52.378;4.740;2022-10-16T00:14:06;41.76;39.49;45.25;;
71034;Laerm;58847;52.378;4.740;2022-10-16T00:14:17;42.13;39.30;47.50;;
71034;Laerm;58847;52.378;4.740;2022-10-16T00:14:27;43.08;39.90;47.55;;
71034;Laerm;58847;52.378;4.740;2022-10-16T00:14:38;41.74;39.04;45.15;;
71034;Laerm;58847;52.378;4.740;2022-10-16T00:14:50;41.68;39.70;44.87;;
71034;Laerm;58847;52.378;4.740;2022-10-16T00:15:01;41.94;40.00;45.85;;
71034;Laerm;58847;52.378;4.740;2022-10-16T00:15:11;45.04;40.32;52.56;;
71034;Laerm;58847;52.378;4.740;2022-10-16T00:15:21;44.95;42.16;48.68;;
71034;Laerm;58847;52.378;4.740;2022-10-16T00:15:37;46.54;42.37;53.13;;
71034;Laerm;58847;52.378;4.740;2022-10-16T00:15:49;43.01;39.67;47.62;;
71034;Laerm;58847;52.378;4.740;2022-10-16T00:15:59;48.31;40.86;55.13;;
71034;Laerm;58847;52.378;4.740;2022-10-16T00:16:10;41.44;39.54;44.05;;
71034;Laerm;58847;52.378;4.740;2022-10-16T00:16:21;41.56;39.74;44.01;;
71034;Laerm;58847;52.378;4.740;2022-10-16T00:16:31;41.85;39.73;44.06;;
71034;Laerm;58847;52.378;4.740;2022-10-16T00:16:42;41.09;39.04;44.40;;
71034;Laerm;58847;52.378;4.740;2022-10-16T00:16:52;41.46;38.64;45.03;;
71034;Laerm;58847;52.378;4.740;2022-10-16T00:17:02;41.66;39.80;45.25;;
71034;Laerm;58847;52.378;4.740;2022-10-16T00:17:13;42.53;40.00;46.80;;
71034;Laerm;58847;52.378;4.740;2022-10-16T00:17:23;41.60;39.80;44.35;;
71034;Laerm;58847;52.378;4.740;2022-10-16T00:17:33;40.99;39.42;43.98;;
71034;Laerm;58847;52.378;4.740;2022-10-16T00:17:43;41.51;38.99;44.35;;
71034;Laerm;58847;52.378;4.740;2022-10-16T00:17:53;41.22;38.42;51.28;;
71034;Laerm;58847;52.378;4.740;2022-10-16T00:18:04;40.32;38.64;43.71;;
71034;Laerm;58847;52.378;4.740;2022-10-16T00:18:15;40.57;38.65;43.94;;
71034;Laerm;58847;52.378;4.740;2022-10-16T00:18:25;40.74;38.90;43.42;;
71034;Laerm;58847;52.378;4.740;2022-10-16T00:18:36;41.82;39.95;43.84;;
71034;Laerm;58847;52.378;4.740;2022-10-16T00:18:47;41.25;39.31;45.22;;
71034;Laerm;58847;52.378;4.740;2022-10-16T00:18:57;41.63;39.73;44.19;;
71034;Laerm;58847;52.378;4.740;2022-10-16T00:19:08;41.25;39.22;43.93;;
71034;Laerm;58847;52.378;4.740;2022-10-16T00:19:19;41.56;39.73;43.77;;
71034;Laerm;58847;52.378;4.740;2022-10-16T00:19:29;41.45;39.75;44.55;;
71034;Laerm;58847;52.378;4.740;2022-10-16T00:19:39;41.08;39.17;44.18;;
71034;Laerm;58847;52.378;4.740;2022-10-16T00:19:49;41.12;39.05;43.90;;
71034;Laerm;58847;52.378;4.740;2022-10-16T00:20:00;41.02;38.73;43.59;;
71034;Laerm;58847;52.378;4.740;2022-10-16T00:20:10;41.18;39.12;45.80;;
71034;Laerm;58847;52.378;4.740;2022-10-16T00:20:20;41.20;38.53;43.58;;
71034;Laerm;58847;52.378;4.740;2022-10-16T00:20:33;41.92;38.75;45.41;;
71034;Laerm;58847;52.378;4.740;2022-10-16T00:20:44;41.25;39.18;45.16;;
71034;Laerm;58847;52.378;4.740;2022-10-16T00:20:54;40.89;38.24;43.35;;
71034;Laerm;58847;52.378;4.740;2022-10-16T00:21:19;40.90;38.61;44.64;;
71034;Laerm;58847;52.378;4.740;2022-10-16T00:21:33;41.73;39.46;45.40;;
71034;Laerm;58847;52.378;4.740;2022-10-16T00:21:43;41.26;39.30;44.21;;
71034;Laerm;58847;52.378;4.740;2022-10-16T00:21:53;40.81;39.44;44.08;;
71034;Laerm;58847;52.378;4.740;2022-10-16T00:22:03;41.40;39.20;43.79;;
71034;Laerm;58847;52.378;4.740;2022-10-16T00:22:14;41.51;39.67;44.95;;
71034;Laerm;58847;52.378;4.740;2022-10-16T00:22:24;42.14;40.05;44.23;;
71034;Laerm;58847;52.378;4.740;2022-10-16T00:22:34;42.52;41.09;45.38;;
71034;Laerm;58847;52.378;4.740;2022-10-16T00:22:44;42.00;40.21;50.24;;
71034;Laerm;58847;52.378;4.740;2022-10-16T00:22:54;41.60;40.19;43.85;;
71034;Laerm;58847;52.378;4.740;2022-10-16T00:23:05;41.42;39.69;46.36;;
71034;Laerm;58847;52.378;4.740;2022-10-16T00:23:15;41.10;38.92;43.19;;
71034;Laerm;58847;52.378;4.740;2022-10-16T00:23:29;43.06;40.51;53.64;;
71034;Laerm;58847;52.378;4.740;2022-10-16T00:23:39;42.24;40.39;44.06;;
71034;Laerm;58847;52.378;4.740;2022-10-16T00:23:50;42.14;40.20;45.23;;
71034;Laerm;58847;52.378;4.740;2022-10-16T00:24:02;44.71;42.03;47.35;;
71034;Laerm;58847;52.378;4.740;2022-10-16T00:24:12;44.08;41.63;46.10;;
71034;Laerm;58847;52.378;4.740;2022-10-16T00:24:22;43.92;41.83;47.91;;
71034;Laerm;58847;52.378;4.740;2022-10-16T00:24:33;43.12;41.38;44.92;;
71034;Laerm;58847;52.378;4.740;2022-10-16T00:24:43;43.48;41.06;49.07;;
71034;Laerm;58847;52.378;4.740;2022-10-16T00:24:53;44.11;41.98;50.82;;
71034;Laerm;58847;52.378;4.740;2022-10-16T00:25:03;43.70;41.32;46.27;;
71034;Laerm;58847;52.378;4.740;2022-10-16T00:25:14;43.83;41.10;45.81;;
71034;Laerm;58847;52.378;4.740;2022-10-16T00:25:24;43.62;41.63;46.16;;
71034;Laerm;58847;52.378;4.740;2022-10-16T00:25:34;42.11;39.96;44.09;;
71034;Laerm;58847;52.378;4.740;2022-10-16T00:25:45;41.35;39.42;43.51;;
71034;Laerm;58847;52.378;4.740;2022-10-16T00:26:06;42.18;39.86;45.23;;
71034;Laerm;58847;52.378;4.740;2022-10-16T00:26:17;41.50;39.18;44.68;;
71034;Laerm;58847;52.378;4.740;2022-10-16T00:26:28;41.98;39.84;44.20;;
71034;Laerm;58847;52.378;4.740;2022-10-16T00:26:39;42.54;40.79;44.90;;
71034;Laerm;58847;52.378;4.740;2022-10-16T00:26:50;42.19;40.32;44.95;;
71034;Laerm;58847;52.378;4.740;2022-10-16T00:27:00;42.13;40.21;45.06;;
71034;Laerm;58847;52.378;4.740;2022-10-16T00:27:11;42.97;41.05;45.54;;
71034;Laerm;58847;52.378;4.740;2022-10-16T00:27:21;42.79;40.69;45.60;;
71034;Laerm;58847;52.378;4.740;2022-10-16T00:27:32;41.91;39.91;44.60;;
71034;Laerm;58847;52.378;4.740;2022-10-16T00:27:42;42.51;40.73;44.81;;
71034;Laerm;58847;52.378;4.740;2022-10-16T00:27:52;42.09;40.49;44.44;;
71034;Laerm;58847;52.378;4.740;2022-10-16T00:28:03;41.22;39.70;43.96;;
71034;Laerm;58847;52.378;4.740;2022-10-16T00:28:13;41.55;39.65;45.74;;
71034;Laerm;58847;52.378;4.740;2022-10-16T00:28:23;43.12;39.59;47.01;;
71034;Laerm;58847;52.378;4.740;2022-10-16T00:28:34;46.67;43.44;50.90;;
71034;Laerm;58847;52.378;4.740;2022-10-16T00:28:48;43.39;41.05;45.68;;
71034;Laerm;58847;52.378;4.740;2022-10-16T00:28:59;42.28;39.43;45.37;;
71034;Laerm;58847;52.378;4.740;2022-10-16T00:29:09;42.60;40.77;44.37;;
71034;Laerm;58847;52.378;4.740;2022-10-16T00:29:19;42.20;40.11;46.00;;
71034;Laerm;58847;52.378;4.740;2022-10-16T00:29:29;43.00;40.84;45.42;;
71034;Laerm;58847;52.378;4.740;2022-10-16T00:29:40;42.91;40.84;46.03;;
71034;Laerm;58847;52.378;4.740;2022-10-16T00:29:51;42.18;40.44;44.55;;
71034;Laerm;58847;52.378;4.740;2022-10-16T00:30:02;41.70;40.16;43.72;;
71034;Laerm;58847;52.378;4.740;2022-10-16T00:30:13;41.76;39.24;45.35;;
71034;Laerm;58847;52.378;4.740;2022-10-16T00:30:23;43.17;40.04;51.33;;
71034;Laerm;58847;52.378;4.740;2022-10-16T00:30:33;41.64;39.90;44.03;;
71034;Laerm;58847;52.378;4.740;2022-10-16T00:30:44;41.70;39.87;44.51;;
71034;Laerm;58847;52.378;4.740;2022-10-16T00:30:54;42.22;40.56;44.48;;
71034;Laerm;58847;52.378;4.740;2022-10-16T00:31:05;42.67;40.80;45.72;;
71034;Laerm;58847;52.378;4.740;2022-10-16T00:31:16;43.50;41.67;45.78;;
71034;Laerm;58847;52.378;4.740;2022-10-16T00:31:27;42.74;40.58;45.22;;
71034;Laerm;58847;52.378;4.740;2022-10-16T00:31:37;43.08;41.27;45.42;;
71034;Laerm;58847;52.378;4.740;2022-10-16T00:31:47;42.84;41.14;45.72;;
71034;Laerm;58847;52.378;4.740;2022-10-16T00:31:57;42.45;40.48;44.82;;
71034;Laerm;58847;52.378;4.740;2022-10-16T00:32:07;43.69;41.53;49.59;;
71034;Laerm;58847;52.378;4.740;2022-10-16T00:32:18;44.77;42.29;47.31;;
71034;Laerm;58847;52.378;4.740;2022-10-16T00:32:29;47.68;43.90;53.00;;
71034;Laerm;58847;52.378;4.740;2022-10-16T00:32:39;48.99;44.86;56.17;;
71034;Laerm;58847;52.378;4.740;2022-10-16T00:32:49;47.79;44.63;51.97;;
71034;Laerm;58847;52.378;4.740;2022-10-16T00:33:00;45.69;43.00;50.46;;
71034;Laerm;58847;52.378;4.740;2022-10-16T00:33:10;46.43;43.02;51.81;;
71034;Laerm;58847;52.378;4.740;2022-10-16T00:33:21;46.13;42.00;52.86;;
71034;Laerm;58847;52.378;4.740;2022-10-16T00:33:31;42.80;41.11;45.38;;
71034;Laerm;58847;52.378;4.740;2022-10-16T00:33:41;42.24;40.81;44.75;;
71034;Laerm;58847;52.378;4.740;2022-10-16T00:33:52;41.70;40.31;44.06;;
71034;Laerm;58847;52.378;4.740;2022-10-16T00:34:02;42.63;40.95;45.58;;
71034;Laerm;58847;52.378;4.740;2022-10-16T00:34:13;42.14;39.92;45.27;;
71034;Laerm;58847;52.378;4.740;2022-10-16T00:34:23;41.78;40.00;43.96;;
71034;Laerm;58847;52.378;4.740;2022-10-16T00:34:33;41.83;40.27;46.37;;
71034;Laerm;58847;52.378;4.740;2022-10-16T00:34:43;42.38;40.60;46.75;;
71034;Laerm;58847;52.378;4.740;2022-10-16T00:34:54;41.55;39.62;45.71;;
71034;Laerm;58847;52.378;4.740;2022-10-16T00:35:04;41.27;39.29;44.20;;
71034;Laerm;58847;52.378;4.740;2022-10-16T00:35:15;41.33;39.43;44.28;;
71034;Laerm;58847;52.378;4.740;2022-10-16T00:35:25;42.49;39.94;45.82;;
71034;Laerm;58847;52.378;4.740;2022-10-16T00:35:35;44.24;42.11;50.24;;
71034;Laerm;58847;52.378;4.740;2022-10-16T00:35:46;44.17;42.49;46.17;;
71034;Laerm;58847;52.378;4.740;2022-10-16T00:35:59;44.18;42.54;47.68;;
71034;Laerm;58847;52.378;4.740;2022-10-16T00:36:11;45.21;42.52;55.77;;
71034;Laerm;58847;52.378;4.740;2022-10-16T00:36:23;43.70;41.63;50.61;;
71034;Laerm;58847;52.378;4.740;2022-10-16T00:36:34;42.98;40.93;45.58;;
71034;Laerm;58847;52.378;4.740;2022-10-16T00:36:44;43.29;41.56;45.83;;
71034;Laerm;58847;52.378;4.740;2022-10-16T00:36:54;42.56;40.96;45.25;;
71034;Laerm;58847;52.378;4.740;2022-10-16T00:37:05;43.24;40.92;47.44;;
71034;Laerm;58847;52.378;4.740;2022-10-16T00:37:15;45.39;42.95;50.17;;
71034;Laerm;58847;52.378;4.740;2022-10-16T00:37:26;46.38;43.04;53.58;;
71034;Laerm;58847;52.378;4.740;2022-10-16T00:37:36;48.58;45.27;55.07;;
71034;Laerm;58847;52.378;4.740;2022-10-16T00:37:46;46.62;44.25;49.42;;
71034;Laerm;58847;52.378;4.740;2022-10-16T00:37:56;44.94;42.13;49.44;;
71034;Laerm;58847;52.378;4.740;2022-10-16T00:38:06;44.71;41.80;48.16;;
71034;Laerm;58847;52.378;4.740;2022-10-16T00:38:17;45.21;43.58;47.36;;
71034;Laerm;58847;52.378;4.740;2022-10-16T00:38:27;43.79;41.96;45.72;;
71034;Laerm;58847;52.378;4.740;2022-10-16T00:38:37;42.89;40.98;46.96;;
71034;Laerm;58847;52.378;4.740;2022-10-16T00:38:50;42.06;40.18;44.70;;
71034;Laerm;58847;52.378;4.740;2022-10-16T00:39:02;42.33;40.05;44.87;;
71034;Laerm;58847;52.378;4.740;2022-10-16T00:39:13;42.69;40.46;50.95;;
71034;Laerm;58847;52.378;4.740;2022-10-16T00:39:23;42.76;40.96;46.55;;
71034;Laerm;58847;52.378;4.740;2022-10-16T00:39:34;42.05;40.71;44.53;;
71034;Laerm;58847;52.378;4.740;2022-10-16T00:39:45;43.50;41.16;46.65;;
71034;Laerm;58847;52.378;4.740;2022-10-16T00:39:55;44.87;42.16;46.99;;
71034;Laerm;58847;52.378;4.740;2022-10-16T00:40:06;43.53;41.76;45.40;;
71034;Laerm;58847;52.378;4.740;2022-10-16T00:40:16;42.63;41.14;44.67;;
71034;Laerm;58847;52.378;4.740;2022-10-16T00:40:27;41.83;39.82;43.56;;
71034;Laerm;58847;52.378;4.740;2022-10-16T00:40:38;41.81;39.27;44.54;;
71034;Laerm;58847;52.378;4.740;2022-10-16T00:40:48;42.08;39.93;44.02;;
71034;Laerm;58847;52.378;4.740;2022-10-16T00:40:58;43.45;41.35;47.32;;
71034;Laerm;58847;52.378;4.740;2022-10-16T00:41:14;42.29;40.58;44.13;;
71034;Laerm;58847;52.378;4.740;2022-10-16T00:41:25;43.25;40.52;45.92;;
71034;Laerm;58847;52.378;4.740;2022-10-16T00:41:35;44.89;42.21;46.75;;
71034;Laerm;58847;52.378;4.740;2022-10-16T00:41:45;44.11;42.25;46.74;;
71034;Laerm;58847;52.378;4.740;2022-10-16T00:41:55;44.23;42.68;46.47;;
71034;Laerm;58847;52.378;4.740;2022-10-16T00:42:05;43.72;42.01;45.54;;
71034;Laerm;58847;52.378;4.740;2022-10-16T00:42:17;43.18;41.10;44.93;;
71034;Laerm;58847;52.378;4.740;2022-10-16T00:42:27;42.94;41.31;45.92;;
71034;Laerm;58847;52.378;4.740;2022-10-16T00:42:38;43.27;41.28;47.48;;
71034;Laerm;58847;52.378;4.740;2022-10-16T00:42:48;43.17;40.88;50.31;;
71034;Laerm;58847;52.378;4.740;2022-10-16T00:42:58;44.94;42.91;46.66;;
71034;Laerm;58847;52.378;4.740;2022-10-16T00:43:12;43.98;42.42;45.67;;
71034;Laerm;58847;52.378;4.740;2022-10-16T00:43:57;43.16;41.10;45.50;;
71034;Laerm;58847;52.378;4.740;2022-10-16T00:44:59;44.50;41.18;49.33;;
71034;Laerm;58847;52.378;4.740;2022-10-16T00:45:10;44.68;41.32;50.86;;
71034;Laerm;58847;52.378;4.740;2022-10-16T00:45:20;42.62;40.21;46.75;;
71034;Laerm;58847;52.378;4.740;2022-10-16T00:45:30;41.98;39.86;45.13;;
71034;Laerm;58847;52.378;4.740;2022-10-16T00:45:42;43.95;41.78;47.13;;
71034;Laerm;58847;52.378;4.740;2022-10-16T00:45:52;43.09;41.02;46.01;;
71034;Laerm;58847;52.378;4.740;2022-10-16T00:46:03;44.18;41.03;48.43;;
71034;Laerm;58847;52.378;4.740;2022-10-16T00:46:40;42.49;40.61;48.36;;
71034;Laerm;58847;52.378;4.740;2022-10-16T00:46:51;42.37;39.81;45.52;;
71034;Laerm;58847;52.378;4.740;2022-10-16T00:47:01;43.25;40.83;46.91;;
71034;Laerm;58847;52.378;4.740;2022-10-16T00:47:13;42.84;40.77;44.78;;
71034;Laerm;58847;52.378;4.740;2022-10-16T00:47:32;44.63;41.48;48.39;;
71034;Laerm;58847;52.378;4.740;2022-10-16T00:47:44;42.88;40.49;45.28;;
71034;Laerm;58847;52.378;4.740;2022-10-16T00:47:57;42.88;40.59;45.37;;
71034;Laerm;58847;52.378;4.740;2022-10-16T00:48:09;42.63;40.95;45.13;;
71034;Laerm;58847;52.378;4.740;2022-10-16T00:48:20;41.94;40.03;44.19;;
71034;Laerm;58847;52.378;4.740;2022-10-16T00:48:31;42.16;40.29;44.73;;
71034;Laerm;58847;52.378;4.740;2022-10-16T00:48:42;43.81;41.50;47.52;;
71034;Laerm;58847;52.378;4.740;2022-10-16T00:49:16;42.98;40.30;45.83;;
71034;Laerm;58847;52.378;4.740;2022-10-16T00:49:28;42.63;40.42;44.79;;
71034;Laerm;58847;52.378;4.740;2022-10-16T00:49:39;43.16;41.44;45.56;;
71034;Laerm;58847;52.378;4.740;2022-10-16T00:49:50;43.25;40.92;45.26;;
71034;Laerm;58847;52.378;4.740;2022-10-16T00:50:07;42.16;40.42;45.38;;
71034;Laerm;58847;52.378;4.740;2022-10-16T00:50:30;44.40;43.22;45.88;;
71034;Laerm;58847;52.378;4.740;2022-10-16T00:50:41;43.60;41.15;46.31;;
71034;Laerm;58847;52.378;4.740;2022-10-16T00:50:53;42.61;40.41;45.74;;
71034;Laerm;58847;52.378;4.740;2022-10-16T00:51:04;41.77;40.22;45.64;;
71034;Laerm;58847;52.378;4.740;2022-10-16T00:51:16;41.58;40.09;43.87;;
71034;Laerm;58847;52.378;4.740;2022-10-16T00:51:30;42.01;40.50;44.56;;
71034;Laerm;58847;52.378;4.740;2022-10-16T00:51:42;42.78;40.55;44.54;;
71034;Laerm;58847;52.378;4.740;2022-10-16T00:51:53;42.92;40.99;46.55;;
71034;Laerm;58847;52.378;4.740;2022-10-16T00:52:04;42.20;40.86;44.92;;
71034;Laerm;58847;52.378;4.740;2022-10-16T00:52:15;41.60;39.97;44.25;;
71034;Laerm;58847;52.378;4.740;2022-10-16T00:52:26;41.37;39.55;44.01;;
71034;Laerm;58847;52.378;4.740;2022-10-16T00:52:37;42.07;39.83;44.19;;
71034;Laerm;58847;52.378;4.740;2022-10-16T00:52:50;41.85;40.19;45.61;;
71034;Laerm;58847;52.378;4.740;2022-10-16T00:53:01;44.07;41.77;51.72;;
71034;Laerm;58847;52.378;4.740;2022-10-16T00:53:13;42.27;39.67;46.12;;
71034;Laerm;58847;52.378;4.740;2022-10-16T00:53:24;41.68;39.42;46.13;;
71034;Laerm;58847;52.378;4.740;2022-10-16T00:53:35;42.99;40.31;45.65;;
71034;Laerm;58847;52.378;4.740;2022-10-16T00:53:45;43.39;41.30;46.22;;
71034;Laerm;58847;52.378;4.740;2022-10-16T00:53:56;42.86;41.34;45.29;;
71034;Laerm;58847;52.378;4.740;2022-10-16T00:54:08;42.85;40.34;45.94;;
71034;Laerm;58847;52.378;4.740;2022-10-16T00:54:19;42.80;40.83;45.32;;
71034;Laerm;58847;52.378;4.740;2022-10-16T00:54:31;43.83;40.62;47.70;;
71034;Laerm;58847;52.378;4.740;2022-10-16T00:54:42;43.47;41.46;48.81;;
71034;Laerm;58847;52.378;4.740;2022-10-16T00:54:52;43.00;40.61;46.33;;
71034;Laerm;58847;52.378;4.740;2022-10-16T00:55:03;43.64;41.82;46.20;;
71034;Laerm;58847;52.378;4.740;2022-10-16T00:55:14;45.45;42.49;54.97;;
71034;Laerm;58847;52.378;4.740;2022-10-16T00:55:25;43.92;41.59;46.72;;
71034;Laerm;58847;52.378;4.740;2022-10-16T00:55:35;45.74;42.33;49.95;;
71034;Laerm;58847;52.378;4.740;2022-10-16T00:55:46;44.92;42.83;47.86;;
71034;Laerm;58847;52.378;4.740;2022-10-16T00:55:56;44.81;42.82;46.48;;
71034;Laerm;58847;52.378;4.740;2022-10-16T00:56:06;44.98;43.74;47.33;;
71034;Laerm;58847;52.378;4.740;2022-10-16T00:56:16;45.66;43.90;48.29;;
71034;Laerm;58847;52.378;4.740;2022-10-16T00:56:27;44.74;43.00;46.52;;
71034;Laerm;58847;52.378;4.740;2022-10-16T00:56:37;45.74;43.44;47.79;;
71034;Laerm;58847;52.378;4.740;2022-10-16T00:56:47;45.33;42.37;49.68;;
71034;Laerm;58847;52.378;4.740;2022-10-16T00:56:59;44.52;42.25;47.44;;
71034;Laerm;58847;52.378;4.740;2022-10-16T00:57:11;45.86;42.29;51.11;;
71034;Laerm;58847;52.378;4.740;2022-10-16T00:57:21;45.69;43.61;51.33;;
71034;Laerm;58847;52.378;4.740;2022-10-16T00:57:31;44.69;43.25;46.83;;
71034;Laerm;58847;52.378;4.740;2022-10-16T00:57:42;44.47;42.05;48.38;;
71034;Laerm;58847;52.378;4.740;2022-10-16T00:57:53;43.57;42.14;45.72;;
71034;Laerm;58847;52.378;4.740;2022-10-16T00:58:04;45.95;42.23;58.64;;
71034;Laerm;58847;52.378;4.740;2022-10-16T00:58:14;43.70;41.77;46.20;;
71034;Laerm;58847;52.378;4.740;2022-10-16T00:58:24;43.12;40.67;46.53;;
71034;Laerm;58847;52.378;4.740;2022-10-16T00:58:35;44.38;42.82;46.75;;
71034;Laerm;58847;52.378;4.740;2022-10-16T00:58:45;43.46;41.98;45.59;;
71034;Laerm;58847;52.378;4.740;2022-10-16T00:58:55;43.46;41.40;45.51;;
71034;Laerm;58847;52.378;4.740;2022-10-16T00:59:07;45.64;43.61;52.42;;
71034;Laerm;58847;52.378;4.740;2022-10-16T00:59:29;45.58;43.57;48.28;;
71034;Laerm;58847;52.378;4.740;2022-10-16T00:59:40;44.72;43.12;46.84;;
71034;Laerm;58847;52.378;4.740;2022-10-16T00:59:50;44.09;42.78;46.09;;
71034;Laerm;58847;52.378;4.740;2022-10-16T01:00:21;43.69;41.27;54.79;;
71034;Laerm;58847;52.378;4.740;2022-10-16T01:00:32;43.35;41.26;47.87;;
71034;Laerm;58847;52.378;4.740;2022-10-16T01:00:42;43.91;42.42;46.03;;
71034;Laerm;58847;52.378;4.740;2022-10-16T01:00:52;44.44;42.66;46.38;;
71034;Laerm;58847;52.378;4.740;2022-10-16T01:01:03;44.88;43.78;47.22;;
71034;Laerm;58847;52.378;4.740;2022-10-16T01:01:13;43.67;42.21;46.18;;
71034;Laerm;58847;52.378;4.740;2022-10-16T01:01:23;43.44;41.83;45.11;;
71034;Laerm;58847;52.378;4.740;2022-10-16T01:01:33;42.41;40.90;45.52;;
71034;Laerm;58847;52.378;4.740;2022-10-16T01:01:44;42.13;40.79;44.56;;
71034;Laerm;58847;52.378;4.740;2022-10-16T01:01:54;41.90;40.57;45.79;;
71034;Laerm;58847;52.378;4.740;2022-10-16T01:02:05;42.77;40.75;44.64;;
71034;Laerm;58847;52.378;4.740;2022-10-16T01:02:16;43.82;41.60;46.17;;
71034;Laerm;58847;52.378;4.740;2022-10-16T01:02:26;44.53;42.56;51.27;;
71034;Laerm;58847;52.378;4.740;2022-10-16T01:02:36;45.83;42.08;55.84;;
71034;Laerm;58847;52.378;4.740;2022-10-16T01:02:53;44.08;42.67;46.72;;
71034;Laerm;58847;52.378;4.740;2022-10-16T01:03:21;43.74;41.49;46.89;;
71034;Laerm;58847;52.378;4.740;2022-10-16T01:03:33;43.74;41.83;47.87;;
71034;Laerm;58847;52.378;4.740;2022-10-16T01:03:44;44.68;41.99;47.29;;
71034;Laerm;58847;52.378;4.740;2022-10-16T01:03:55;45.24;43.27;47.65;;
71034;Laerm;58847;52.378;4.740;2022-10-16T01:04:05;44.58;42.28;45.97;;
71034;Laerm;58847;52.378;4.740;2022-10-16T01:04:15;43.44;41.83;45.76;;